Time;durP1;ratioP1;P1;durP2;ratioP2;P2;SDS_P1;SDS_P2;PMS_P1;PMS_P2;Temp;Humidity;BMP_temperature;BMP_pressure;BME280_temperature;BME280_humidity;BME280_pressure;Samples;Min_cycle;Max_cycle;Signal;HPM_P1;HPM_P2
2022/11/20 00:00:46;;;;;;;0.10;0.10;;;3.10;99.90;;;;;;5089629;28;20386;-85
2022/11/20 00:03:12;;;;;;;0.10;0.10;;;3.10;99.90;;;;;;5097811;28;20651;-85
2022/11/20 00:05:38;;;;;;;0.10;0.10;;;3.10;99.90;;;;;;5095188;28;20172;-85
2022/11/20 00:08:04;;;;;;;0.10;0.10;;;3.00;99.90;;;;;;5099433;28;20230;-85
2022/11/20 00:10:30;;;;;;;0.10;0.10;;;3.00;99.90;;;;;;5104846;28;20226;-86
2022/11/20 00:12:58;;;;;;;0.10;0.10;;;3.00;99.90;;;;;;5102816;28;20274;-86
2022/11/20 00:15:24;;;;;;;0.10;0.10;;;3.30;99.90;;;;;;5111262;28;20631;-85
2022/11/20 00:17:49;;;;;;;0.10;0.10;;;3.10;99.90;;;;;;5093201;28;20239;-85
2022/11/20 00:20:17;;;;;;;0.10;0.10;;;3.00;99.90;;;;;;5094423;28;20207;-85
2022/11/20 00:22:43;;;;;;;0.10;0.10;;;3.10;99.90;;;;;;5102315;28;20193;-86
2022/11/20 00:25:08;;;;;;;0.10;0.10;;;3.10;99.90;;;;;;5104449;28;20191;-85
2022/11/20 00:27:34;;;;;;;0.10;0.10;;;3.20;99.90;;;;;;5097758;28;20170;-84
2022/11/20 00:29:59;;;;;;;0.10;0.10;;;3.30;99.90;;;;;;5093306;28;20681;-83
2022/11/20 00:32:25;;;;;;;0.10;0.10;;;3.30;99.90;;;;;;5103656;28;20192;-85
2022/11/20 00:34:50;;;;;;;0.10;0.10;;;3.30;99.90;;;;;;5082759;28;20199;-85
2022/11/20 00:37:16;;;;;;;0.10;0.10;;;3.30;99.90;;;;;;5090700;28;20181;-85
2022/11/20 00:39:41;;;;;;;0.10;0.10;;;3.50;99.90;;;;;;5094114;28;20213;-85
2022/11/20 00:42:07;;;;;;;0.07;0.07;;;3.70;99.90;;;;;;5098822;28;20207;-85
2022/11/20 00:44:32;;;;;;;0.10;0.10;;;3.70;99.90;;;;;;5099343;28;20625;-85
2022/11/20 00:46:58;;;;;;;0.10;0.10;;;3.50;99.90;;;;;;5087707;28;20545;-85
2022/11/20 00:49:23;;;;;;;0.10;0.10;;;3.30;99.90;;;;;;5093449;28;20180;-85
2022/11/20 00:51:49;;;;;;;0.10;0.10;;;3.10;99.90;;;;;;5094487;28;20179;-85
2022/11/20 00:54:15;;;;;;;0.10;0.10;;;3.10;99.90;;;;;;5092336;28;20180;-85
2022/11/20 00:56:40;;;;;;;0.10;0.10;;;2.90;99.90;;;;;;5091761;28;20227;-85
2022/11/20 00:59:06;;;;;;;0.10;0.10;;;2.80;99.90;;;;;;5099529;28;20213;-85
2022/11/20 01:01:31;;;;;;;0.10;0.10;;;2.90;99.90;;;;;;5097463;28;20198;-85
2022/11/20 01:03:59;;;;;;;0.10;0.10;;;2.90;99.90;;;;;;5105548;28;20197;-85
2022/11/20 01:06:28;;;;;;;0.10;0.10;;;2.90;99.90;;;;;;5088648;28;20183;-85
2022/11/20 01:08:56;;;;;;;0.10;0.10;;;2.90;99.90;;;;;;5104653;28;20179;-85
2022/11/20 01:11:34;;;;;;;0.10;0.10;;;2.90;99.90;;;;;;5081199;28;20201;-83
2022/11/20 01:14:01;;;;;;;0.00;0.00;;;2.90;99.90;;;;;;5092723;28;20653;-85
2022/11/20 01:16:36;;;;;;;0.10;0.10;;;3.10;99.90;;;;;;5082210;28;20191;-86
2022/11/20 01:19:05;;;;;;;0.10;0.10;;;3.30;99.90;;;;;;5103684;28;20195;-85
2022/11/20 01:21:33;;;;;;;0.10;0.10;;;3.50;99.90;;;;;;5089117;28;20228;-85
2022/11/20 01:23:59;;;;;;;0.10;0.10;;;3.60;99.90;;;;;;5100471;28;20185;-85
2022/11/20 01:26:28;;;;;;;0.10;0.10;;;3.50;99.90;;;;;;5099055;28;20558;-86
2022/11/20 01:28:54;;;;;;;0.10;0.10;;;3.50;99.90;;;;;;5088984;28;20180;-85
2022/11/20 01:31:21;;;;;;;0.10;0.10;;;3.50;99.90;;;;;;5098029;28;20192;-85
2022/11/20 01:33:50;;;;;;;0.10;0.10;;;3.60;99.90;;;;;;5109042;28;20177;-85
2022/11/20 01:36:16;;;;;;;0.10;0.10;;;3.80;99.90;;;;;;5094015;28;20182;-85
2022/11/20 01:38:42;;;;;;;0.10;0.10;;;3.80;99.90;;;;;;5096852;28;20236;-86
2022/11/20 01:41:09;;;;;;;0.10;0.10;;;3.70;99.90;;;;;;5095020;28;20678;-85
2022/11/20 01:43:35;;;;;;;0.10;0.10;;;3.60;99.90;;;;;;5094114;28;20192;-85
2022/11/20 01:46:17;;;;;;;0.10;0.10;;;3.60;99.90;;;;;;5110006;28;20194;-85
2022/11/20 01:48:59;;;;;;;0.10;0.10;;;3.30;99.90;;;;;;5096348;28;20178;-85
2022/11/20 01:51:28;;;;;;;0.10;0.10;;;3.10;99.90;;;;;;5095530;28;20204;-85
2022/11/20 01:53:59;;;;;;;0.00;0.00;;;3.40;99.90;;;;;;5097371;28;20182;-85
2022/11/20 01:56:28;;;;;;;0.10;0.10;;;3.40;99.90;;;;;;5107179;28;20686;-85
2022/11/20 01:58:58;;;;;;;0.00;0.00;;;3.40;99.90;;;;;;5102892;28;20177;-85
2022/11/20 02:01:23;;;;;;;0.10;0.10;;;3.50;99.90;;;;;;5092871;28;20209;-85
2022/11/20 02:03:50;;;;;;;0.03;0.03;;;3.50;99.90;;;;;;5101206;28;20266;-84
2022/11/20 02:06:19;;;;;;;0.10;0.10;;;3.40;99.90;;;;;;5104868;28;20185;-85
2022/11/20 02:08:44;;;;;;;0.10;0.10;;;3.20;99.90;;;;;;5084374;28;20268;-85
2022/11/20 02:11:10;;;;;;;0.10;0.10;;;3.00;99.90;;;;;;5104114;28;20759;-85
2022/11/20 02:13:45;;;;;;;0.10;0.10;;;3.00;99.90;;;;;;5098290;28;20182;-85
2022/11/20 02:16:19;;;;;;;0.10;0.10;;;3.20;99.90;;;;;;5103041;28;20184;-85
2022/11/20 02:18:45;;;;;;;0.10;0.10;;;3.20;99.90;;;;;;5095618;28;20529;-85
2022/11/20 02:21:32;;;;;;;0.10;0.10;;;3.50;99.90;;;;;;5099320;28;20254;-85
2022/11/20 02:24:03;;;;;;;0.10;0.10;;;3.70;99.90;;;;;;5104230;28;20189;-85
2022/11/20 02:26:31;;;;;;;0.10;0.10;;;3.70;99.90;;;;;;5097207;28;20245;-85
2022/11/20 02:28:58;;;;;;;0.00;0.00;;;3.40;99.90;;;;;;5100320;28;20190;-85
2022/11/20 02:31:24;;;;;;;0.10;0.10;;;3.40;99.90;;;;;;5097704;28;20208;-83
2022/11/20 02:33:57;;;;;;;0.10;0.10;;;3.30;99.90;;;;;;5091717;28;20187;-85
2022/11/20 02:36:26;;;;;;;0.10;0.10;;;3.20;99.90;;;;;;5093869;28;20185;-84
2022/11/20 02:38:52;;;;;;;0.10;0.10;;;3.40;99.90;;;;;;5095042;28;20184;-85
2022/11/20 02:41:17;;;;;;;0.10;0.10;;;3.20;99.90;;;;;;5093478;28;20210;-85
2022/11/20 02:43:43;;;;;;;0.10;0.10;;;3.20;99.90;;;;;;5099142;28;20231;-85
2022/11/20 02:46:09;;;;;;;0.10;0.10;;;3.10;99.90;;;;;;5089731;28;20209;-85
2022/11/20 02:48:35;;;;;;;0.10;0.10;;;3.10;99.90;;;;;;5102717;28;20193;-85
2022/11/20 02:51:00;;;;;;;0.10;0.10;;;3.10;99.90;;;;;;5107351;28;20596;-85
2022/11/20 02:53:26;;;;;;;0.10;0.10;;;3.20;99.90;;;;;;5091707;28;20180;-85
2022/11/20 02:55:51;;;;;;;0.10;0.10;;;3.40;99.90;;;;;;5095737;28;20201;-85
2022/11/20 02:58:17;;;;;;;0.10;0.10;;;3.50;99.90;;;;;;5103544;28;20196;-85
2022/11/20 03:00:42;;;;;;;0.10;0.10;;;3.70;99.90;;;;;;5095985;28;20238;-85
2022/11/20 03:03:08;;;;;;;0.10;0.10;;;3.70;99.90;;;;;;5102594;28;20199;-85
2022/11/20 03:05:34;;;;;;;0.10;0.10;;;3.90;99.90;;;;;;5099605;28;20229;-84
2022/11/20 03:07:59;;;;;;;0.10;0.10;;;4.10;99.90;;;;;;5102885;28;20230;-85
2022/11/20 03:10:25;;;;;;;0.10;0.10;;;4.20;99.90;;;;;;5093298;28;20215;-85
2022/11/20 03:12:56;;;;;;;0.10;0.10;;;4.30;99.90;;;;;;5080277;28;20217;-85
2022/11/20 03:15:23;;;;;;;0.10;0.10;;;4.30;99.90;;;;;;5096107;28;20188;-85
2022/11/20 03:17:48;;;;;;;0.10;0.10;;;4.20;99.90;;;;;;5102981;28;20231;-85
2022/11/20 03:20:14;;;;;;;0.10;0.10;;;4.30;99.90;;;;;;5090328;28;20595;-85
2022/11/20 03:22:40;;;;;;;0.00;0.00;;;3.80;99.90;;;;;;5094407;28;20283;-85
2022/11/20 03:25:06;;;;;;;0.10;0.10;;;3.50;99.90;;;;;;5087819;28;20179;-85
2022/11/20 03:27:33;;;;;;;0.10;0.10;;;3.30;99.90;;;;;;5090471;28;20667;-85
2022/11/20 03:29:59;;;;;;;0.10;0.10;;;3.40;99.90;;;;;;5101891;28;20782;-85
2022/11/20 03:32:24;;;;;;;0.10;0.10;;;3.50;99.90;;;;;;5088554;28;20275;-85
2022/11/20 03:34:50;;;;;;;0.10;0.10;;;3.40;99.90;;;;;;5103591;28;20211;-84
2022/11/20 03:37:15;;;;;;;0.10;0.10;;;3.60;99.90;;;;;;5105037;28;20188;-84
2022/11/20 03:39:41;;;;;;;0.10;0.10;;;3.80;99.90;;;;;;5095214;28;20211;-84
2022/11/20 03:42:44;;;;;;;0.10;0.10;;;3.90;99.90;;;;;;5098966;28;20194;-85
2022/11/20 03:44:53;;;;;;;0.10;0.10;;;3.80;99.90;;;;;;5097760;28;20174;-84
2022/11/20 03:47:18;;;;;;;0.10;0.10;;;4.00;99.90;;;;;;5110095;28;20527;-85
2022/11/20 03:49:44;;;;;;;0.00;0.00;;;3.80;99.90;;;;;;5088409;28;20554;-85
2022/11/20 03:52:10;;;;;;;0.10;0.10;;;3.50;99.90;;;;;;5098825;28;20193;-84
2022/11/20 03:54:35;;;;;;;0.10;0.10;;;3.40;99.90;;;;;;5092444;28;20188;-84
2022/11/20 03:57:01;;;;;;;0.10;0.10;;;3.40;99.90;;;;;;5093159;28;20206;-85
2022/11/20 03:59:26;;;;;;;0.10;0.10;;;3.40;99.90;;;;;;5109757;28;20182;-84
2022/11/20 04:01:52;;;;;;;0.10;0.10;;;3.40;99.90;;;;;;5090347;28;20216;-85
2022/11/20 04:04:17;;;;;;;0.10;0.10;;;3.70;99.90;;;;;;5106845;28;20191;-84
2022/11/20 04:06:43;;;;;;;0.10;0.10;;;3.80;99.90;;;;;;5087680;28;20183;-85
2022/11/20 04:09:08;;;;;;;0.00;0.00;;;3.90;99.90;;;;;;5100566;28;20180;-85
2022/11/20 04:11:36;;;;;;;0.10;0.10;;;4.00;99.90;;;;;;5105878;28;20264;-84
2022/11/20 04:14:04;;;;;;;0.10;0.10;;;4.10;99.90;;;;;;5092116;28;20180;-84
2022/11/20 04:16:32;;;;;;;0.10;0.10;;;4.20;99.90;;;;;;5102494;28;20545;-85
2022/11/20 04:19:00;;;;;;;0.10;0.10;;;3.90;99.90;;;;;;5103695;28;20186;-85
2022/11/20 04:21:26;;;;;;;0.10;0.10;;;3.70;99.90;;;;;;5079700;28;20195;-84
2022/11/20 04:23:53;;;;;;;0.10;0.10;;;3.60;99.90;;;;;;5090906;28;20179;-84
2022/11/20 04:26:19;;;;;;;0.10;0.10;;;3.50;99.90;;;;;;5095920;28;20193;-85
2022/11/20 04:28:44;;;;;;;0.03;0.03;;;3.40;99.90;;;;;;5098958;28;20705;-85
2022/11/20 04:31:16;;;;;;;0.00;0.00;;;3.60;99.90;;;;;;5095181;28;20206;-85
2022/11/20 04:33:42;;;;;;;0.10;0.10;;;3.80;99.90;;;;;;5095972;28;20669;-84
2022/11/20 04:36:12;;;;;;;0.10;0.10;;;4.00;99.90;;;;;;5097784;28;20273;-84
2022/11/20 04:38:38;;;;;;;0.10;0.10;;;4.10;99.90;;;;;;5110305;28;20184;-84
2022/11/20 04:41:06;;;;;;;0.10;0.10;;;4.20;99.90;;;;;;5099614;28;20645;-85
2022/11/20 04:43:32;;;;;;;0.03;0.03;;;4.30;99.90;;;;;;5104669;28;20200;-84
2022/11/20 04:45:59;;;;;;;0.10;0.10;;;4.40;99.90;;;;;;5087207;28;20194;-85
2022/11/20 04:48:26;;;;;;;0.10;0.10;;;4.40;99.90;;;;;;5097987;28;20180;-84
2022/11/20 04:50:52;;;;;;;0.10;0.10;;;4.40;99.90;;;;;;5104464;28;20202;-85
2022/11/20 04:53:18;;;;;;;0.10;0.10;;;4.50;99.90;;;;;;5090413;28;20194;-84
2022/11/20 04:55:44;;;;;;;0.10;0.10;;;4.50;99.90;;;;;;5095685;28;20195;-85
2022/11/20 04:58:11;;;;;;;0.10;0.10;;;4.30;99.90;;;;;;5086971;28;20196;-85
2022/11/20 05:00:37;;;;;;;0.00;0.00;;;4.40;99.90;;;;;;5101341;28;20201;-85
2022/11/20 05:03:02;;;;;;;0.10;0.10;;;4.50;99.90;;;;;;5089267;28;20230;-85
2022/11/20 05:05:28;;;;;;;0.10;0.10;;;4.20;99.90;;;;;;5091219;28;20183;-84
2022/11/20 05:07:59;;;;;;;0.10;0.10;;;3.70;99.90;;;;;;5104322;28;20201;-85
2022/11/20 05:10:25;;;;;;;0.00;0.00;;;3.40;99.90;;;;;;5101749;28;20211;-84
2022/11/20 05:12:51;;;;;;;0.10;0.10;;;3.50;99.90;;;;;;5102986;28;20191;-85
2022/11/20 05:15:17;;;;;;;0.10;0.10;;;3.70;99.90;;;;;;5098930;28;20192;-84
2022/11/20 05:17:48;;;;;;;0.10;0.10;;;3.80;99.90;;;;;;5098948;28;20183;-84
2022/11/20 05:20:13;;;;;;;0.10;0.10;;;4.00;99.90;;;;;;5098032;28;20208;-85
2022/11/20 05:22:39;;;;;;;0.00;0.00;;;4.10;99.90;;;;;;5100642;28;20249;-85
2022/11/20 05:25:04;;;;;;;0.10;0.10;;;4.20;99.90;;;;;;5085566;28;20267;-84
2022/11/20 05:27:30;;;;;;;0.10;0.10;;;4.30;99.90;;;;;;5106631;28;20267;-84
2022/11/20 05:29:56;;;;;;;0.10;0.10;;;4.40;99.90;;;;;;5105330;28;20194;-85
2022/11/20 05:32:25;;;;;;;0.10;0.10;;;4.10;99.90;;;;;;5093140;28;20200;-84
2022/11/20 05:34:51;;;;;;;0.10;0.10;;;3.90;99.90;;;;;;5093898;28;20186;-85
2022/11/20 05:37:16;;;;;;;0.10;0.10;;;4.10;99.90;;;;;;5105379;28;20589;-85
2022/11/20 05:39:42;;;;;;;0.00;0.00;;;4.10;99.90;;;;;;5101111;28;20241;-84
2022/11/20 05:44:51;;;;;;;0.10;0.10;;;4.30;99.90;;;;;;5092868;28;20190;-85
2022/11/20 05:47:17;;;;;;;0.10;0.10;;;4.30;99.90;;;;;;5101750;28;20189;-85
2022/11/20 05:49:42;;;;;;;0.10;0.10;;;4.50;99.90;;;;;;5097167;28;20195;-84
2022/11/20 05:52:08;;;;;;;0.10;0.10;;;4.40;99.90;;;;;;5098215;28;20253;-85
2022/11/20 05:54:33;;;;;;;0.10;0.10;;;4.50;99.90;;;;;;5113966;28;20185;-85
2022/11/20 05:56:59;;;;;;;0.10;0.10;;;4.50;99.90;;;;;;5090047;28;20204;-85
2022/11/20 05:59:25;;;;;;;0.10;0.10;;;4.40;99.90;;;;;;5112900;28;20193;-84
2022/11/20 06:01:50;;;;;;;0.10;0.10;;;4.10;99.90;;;;;;5093194;28;20229;-84
2022/11/20 06:04:16;;;;;;;0.10;0.10;;;4.20;99.90;;;;;;5103129;28;20207;-83
2022/11/20 06:06:41;;;;;;;0.10;0.10;;;4.30;99.90;;;;;;5086042;28;20210;-84
2022/11/20 06:09:07;;;;;;;0.10;0.10;;;4.40;99.90;;;;;;5090055;28;20179;-85
2022/11/20 06:11:33;;;;;;;0.10;0.10;;;4.40;99.90;;;;;;5108796;28;20201;-85
2022/11/20 06:13:58;;;;;;;0.03;0.03;;;4.50;99.90;;;;;;5108334;28;20239;-85
2022/11/20 06:16:24;;;;;;;0.10;0.10;;;3.80;99.90;;;;;;5098700;28;20223;-85
2022/11/20 06:18:49;;;;;;;0.10;0.10;;;3.70;99.90;;;;;;5094850;28;20181;-85
2022/11/20 06:21:18;;;;;;;0.10;0.10;;;3.50;99.90;;;;;;5092705;28;20201;-85
2022/11/20 06:23:44;;;;;;;0.10;0.10;;;3.30;99.90;;;;;;5094982;28;20194;-84
2022/11/20 06:26:21;;;;;;;0.10;0.10;;;3.30;99.90;;;;;;5094451;28;20241;-84
2022/11/20 06:28:47;;;;;;;0.10;0.10;;;3.10;99.90;;;;;;5093561;28;20169;-84
2022/11/20 06:31:15;;;;;;;0.10;0.10;;;3.20;99.90;;;;;;5087602;28;20587;-84
2022/11/20 06:33:41;;;;;;;0.10;0.10;;;3.30;99.90;;;;;;5098911;28;20185;-84
2022/11/20 06:36:07;;;;;;;0.10;0.10;;;3.30;99.90;;;;;;5097362;28;20191;-85
2022/11/20 06:38:32;;;;;;;0.00;0.00;;;3.30;99.90;;;;;;5109430;28;20652;-85
2022/11/20 06:40:58;;;;;;;0.10;0.10;;;3.40;99.90;;;;;;5091945;28;20204;-84
2022/11/20 06:43:24;;;;;;;0.00;0.00;;;3.70;99.90;;;;;;5108704;28;20673;-84
2022/11/20 06:45:54;;;;;;;0.10;0.10;;;3.90;99.90;;;;;;5088117;28;20275;-84
2022/11/20 06:48:20;;;;;;;0.10;0.10;;;3.90;99.90;;;;;;5080572;28;20191;-84
2022/11/20 06:50:46;;;;;;;0.10;0.10;;;3.80;99.90;;;;;;5086651;28;20198;-84
2022/11/20 06:53:11;;;;;;;0.10;0.10;;;3.90;99.90;;;;;;5106397;28;20182;-84
2022/11/20 06:55:37;;;;;;;0.10;0.10;;;4.10;99.90;;;;;;5084917;28;20186;-85
2022/11/20 06:58:02;;;;;;;0.10;0.10;;;4.20;99.90;;;;;;5105879;28;20219;-84
2022/11/20 07:00:28;;;;;;;0.10;0.10;;;4.30;99.90;;;;;;5080728;28;20209;-84
2022/11/20 07:02:53;;;;;;;0.10;0.10;;;4.50;99.90;;;;;;5077014;28;20201;-85
2022/11/20 07:05:19;;;;;;;0.03;0.03;;;4.20;99.90;;;;;;5097310;28;20182;-84
2022/11/20 07:07:44;;;;;;;0.10;0.10;;;4.10;99.90;;;;;;5099510;28;20203;-84
2022/11/20 07:10:10;;;;;;;0.10;0.10;;;4.20;99.90;;;;;;5097586;28;20225;-84
2022/11/20 07:12:36;;;;;;;0.10;0.10;;;4.40;99.90;;;;;;5101279;28;20213;-84
2022/11/20 07:15:03;;;;;;;0.10;0.10;;;4.50;99.90;;;;;;5090097;28;20183;-85
2022/11/20 07:17:28;;;;;;;0.10;0.10;;;4.50;99.90;;;;;;5098969;28;20184;-84
2022/11/20 07:19:54;;;;;;;0.10;0.10;;;4.50;99.90;;;;;;5087547;28;20572;-85
2022/11/20 07:22:21;;;;;;;0.10;0.10;;;4.60;99.90;;;;;;5097920;28;20561;-84
2022/11/20 07:24:47;;;;;;;0.10;0.10;;;4.70;99.90;;;;;;5102076;28;20177;-85
2022/11/20 07:27:12;;;;;;;0.00;0.00;;;4.80;99.90;;;;;;5104838;28;20205;-84
2022/11/20 07:29:38;;;;;;;0.00;0.00;;;4.90;99.90;;;;;;5083006;28;20174;-84
2022/11/20 07:32:04;;;;;;;0.10;0.10;;;4.90;99.90;;;;;;5103728;28;20176;-85
2022/11/20 07:34:29;;;;;;;0.10;0.10;;;4.90;99.90;;;;;;5081909;28;20180;-84
2022/11/20 07:36:55;;;;;;;0.10;0.10;;;5.00;99.90;;;;;;5102787;28;20188;-86
2022/11/20 07:39:20;;;;;;;0.10;0.10;;;5.10;99.90;;;;;;5098240;28;20612;-84
2022/11/20 07:41:46;;;;;;;0.10;0.10;;;5.20;99.90;;;;;;5099001;28;20278;-85
2022/11/20 07:44:12;;;;;;;0.10;0.10;;;5.30;99.90;;;;;;5099905;28;20249;-84
2022/11/20 07:46:37;;;;;;;0.00;0.00;;;5.30;99.90;;;;;;5096814;28;20548;-84
2022/11/20 07:49:03;;;;;;;0.10;0.10;;;5.40;99.90;;;;;;5096978;28;20181;-84
2022/11/20 07:51:29;;;;;;;0.10;0.10;;;5.40;99.90;;;;;;5095363;28;20266;-85
2022/11/20 07:53:54;;;;;;;0.10;0.10;;;5.50;99.90;;;;;;5097012;28;20598;-85
2022/11/20 07:56:20;;;;;;;0.10;0.10;;;5.60;99.90;;;;;;5105615;28;20201;-84
2022/11/20 07:58:45;;;;;;;0.00;0.00;;;5.60;99.90;;;;;;5073637;28;20177;-85
2022/11/20 08:01:11;;;;;;;0.10;0.10;;;5.50;99.90;;;;;;5102924;28;20199;-85
2022/11/20 08:03:39;;;;;;;0.10;0.10;;;5.50;99.90;;;;;;5085015;28;20207;-84
2022/11/20 08:06:05;;;;;;;0.07;0.07;;;5.50;99.90;;;;;;5088212;28;20180;-85
2022/11/20 08:08:31;;;;;;;0.10;0.10;;;5.60;99.90;;;;;;5102163;28;20178;-84
2022/11/20 08:16:26;;;;;;;0.10;0.10;;;5.70;99.90;;;;;;5076210;28;20876;-85
2022/11/20 08:18:51;;;;;;;0.10;0.10;;;5.80;99.90;;;;;;5095647;28;20179;-84
2022/11/20 08:21:17;;;;;;;0.00;0.00;;;5.80;99.90;;;;;;5087853;28;20199;-84
2022/11/20 08:23:42;;;;;;;0.10;0.10;;;5.90;99.90;;;;;;5092560;28;20219;-85
2022/11/20 08:26:08;;;;;;;0.10;0.10;;;5.90;99.90;;;;;;5095345;28;20204;-84
2022/11/20 08:28:33;;;;;;;0.10;0.10;;;6.00;99.90;;;;;;5104478;28;20183;-85
2022/11/20 08:31:00;;;;;;;0.10;0.10;;;6.10;99.90;;;;;;5104128;28;20206;-85
2022/11/20 08:33:26;;;;;;;0.10;0.10;;;6.10;99.90;;;;;;5103835;28;20183;-84
2022/11/20 08:35:51;;;;;;;0.10;0.10;;;6.20;99.90;;;;;;5100824;28;20259;-85
2022/11/20 08:38:17;;;;;;;0.10;0.10;;;6.20;99.90;;;;;;5099177;28;20657;-85
2022/11/20 08:41:23;;;;;;;0.10;0.10;;;6.30;99.90;;;;;;5096526;28;20713;-84
2022/11/20 08:43:28;;;;;;;0.10;0.10;;;6.20;99.90;;;;;;5106678;28;20204;-85
2022/11/20 08:45:56;;;;;;;0.10;0.10;;;6.10;99.90;;;;;;5088093;28;20180;-84
2022/11/20 08:48:22;;;;;;;0.10;0.10;;;6.10;99.90;;;;;;5091189;28;20173;-84
2022/11/20 08:50:47;;;;;;;0.00;0.00;;;6.10;99.90;;;;;;5105290;28;20237;-85
2022/11/20 08:53:13;;;;;;;0.10;0.10;;;6.10;99.90;;;;;;5108143;28;20262;-85
2022/11/20 08:55:39;;;;;;;0.07;0.07;;;6.10;99.90;;;;;;5096444;28;20200;-84
2022/11/20 08:58:05;;;;;;;0.10;0.10;;;6.00;99.90;;;;;;5109554;28;20201;-84
2022/11/20 09:00:32;;;;;;;0.10;0.10;;;6.00;99.90;;;;;;5093392;28;20221;-84
2022/11/20 09:02:58;;;;;;;0.10;0.10;;;6.00;99.90;;;;;;5080857;28;20472;-84
2022/11/20 09:05:24;;;;;;;0.10;0.10;;;6.10;99.90;;;;;;5088095;28;20675;-85
2022/11/20 09:07:49;;;;;;;0.07;0.07;;;6.20;99.90;;;;;;5088936;28;20173;-85
2022/11/20 09:10:15;;;;;;;0.10;0.10;;;6.30;99.90;;;;;;5100207;28;20187;-84
2022/11/20 09:12:41;;;;;;;0.10;0.10;;;6.20;99.90;;;;;;5112060;28;20245;-85
2022/11/20 09:15:07;;;;;;;0.10;0.10;;;6.30;99.90;;;;;;5095572;28;20200;-85
2022/11/20 09:17:32;;;;;;;0.10;0.10;;;6.30;99.90;;;;;;5084071;28;20183;-85
2022/11/20 09:19:58;;;;;;;0.10;0.10;;;6.50;99.90;;;;;;5091482;28;20212;-84
2022/11/20 09:22:24;;;;;;;0.10;0.10;;;6.50;99.90;;;;;;5092581;28;20283;-86
2022/11/20 09:24:49;;;;;;;0.10;0.10;;;6.50;99.90;;;;;;5080384;28;20263;-85
2022/11/20 09:27:20;;;;;;;0.10;0.10;;;6.40;99.90;;;;;;5103571;28;20182;-84
2022/11/20 09:29:45;;;;;;;0.10;0.10;;;6.40;99.90;;;;;;5097898;28;20196;-84
2022/11/20 09:32:11;;;;;;;0.10;0.10;;;6.40;99.90;;;;;;5090486;28;20176;-85
2022/11/20 09:34:36;;;;;;;0.10;0.10;;;6.30;99.90;;;;;;5101135;28;20174;-85
2022/11/20 09:37:02;;;;;;;0.10;0.10;;;6.30;99.90;;;;;;5106453;28;20180;-85
2022/11/20 09:39:27;;;;;;;0.10;0.10;;;6.30;99.90;;;;;;5092983;28;20664;-83
2022/11/20 09:42:21;;;;;;;0.10;0.10;;;6.40;99.90;;;;;;5078649;28;20172;-85
2022/11/20 09:45:12;;;;;;;0.10;0.10;;;6.40;99.90;;;;;;5093448;28;20179;-85
2022/11/20 09:48:14;;;;;;;0.10;0.10;;;6.40;99.90;;;;;;5086224;28;20184;-84
2022/11/20 09:51:18;;;;;;;0.10;0.10;;;6.40;99.90;;;;;;5102111;28;20199;-84
2022/11/20 09:54:17;;;;;;;0.10;0.10;;;6.40;99.90;;;;;;5061202;28;20273;-85
2022/11/20 09:56:54;;;;;;;0.10;0.10;;;6.50;99.90;;;;;;5087556;28;20265;-85
2022/11/20 09:59:31;;;;;;;0.10;0.10;;;6.40;99.90;;;;;;5087538;28;20168;-85
2022/11/20 10:01:58;;;;;;;0.10;0.10;;;6.40;99.90;;;;;;5101845;28;20169;-85
2022/11/20 10:04:24;;;;;;;0.10;0.10;;;6.40;99.90;;;;;;5108922;28;20171;-85
2022/11/20 10:06:50;;;;;;;0.10;0.10;;;6.30;99.90;;;;;;5091166;28;20187;-84
2022/11/20 10:09:27;;;;;;;0.10;0.10;;;6.30;99.90;;;;;;5103457;28;20176;-84
2022/11/20 10:12:06;;;;;;;0.10;0.10;;;6.40;99.90;;;;;;5102569;28;20180;-84
2022/11/20 10:14:40;;;;;;;0.10;0.10;;;6.40;99.90;;;;;;5108323;28;20169;-85
2022/11/20 10:17:23;;;;;;;0.10;0.10;;;6.40;99.90;;;;;;5108737;28;20565;-85
2022/11/20 10:20:14;;;;;;;0.10;0.10;;;6.40;99.90;;;;;;5107359;28;20203;-84
2022/11/20 10:22:49;;;;;;;0.10;0.10;;;6.40;99.90;;;;;;5091675;28;20183;-84
2022/11/20 10:25:20;;;;;;;0.10;0.10;;;6.40;99.90;;;;;;5109650;28;20169;-85
2022/11/20 10:28:27;;;;;;;0.10;0.10;;;6.40;99.90;;;;;;5090640;28;20179;-84
2022/11/20 10:31:28;;;;;;;0.10;0.10;;;6.30;99.90;;;;;;5095351;28;20204;-84
2022/11/20 10:33:56;;;;;;;0.10;0.10;;;6.40;99.90;;;;;;5107676;28;20239;-85
2022/11/20 10:36:33;;;;;;;0.07;0.07;;;6.40;99.90;;;;;;5097056;28;20180;-84
2022/11/20 10:39:03;;;;;;;0.00;0.00;;;6.40;99.90;;;;;;5097713;28;20192;-84
2022/11/20 10:41:41;;;;;;;0.10;0.10;;;6.50;99.90;;;;;;5094103;28;20220;-84
2022/11/20 10:45:00;;;;;;;0.00;0.00;;;6.50;99.90;;;;;;5094307;28;20180;-85
2022/11/20 10:47:05;;;;;;;0.10;0.10;;;6.60;99.90;;;;;;5099609;28;20184;-86
2022/11/20 10:49:33;;;;;;;0.00;0.00;;;6.60;99.90;;;;;;5112023;28;20176;-86
2022/11/20 10:52:13;;;;;;;0.10;0.10;;;6.60;99.90;;;;;;5082068;28;20659;-86
2022/11/20 10:55:24;;;;;;;0.10;0.10;;;6.60;99.90;;;;;;5091767;28;20177;-85
2022/11/20 10:57:59;;;;;;;0.00;0.00;;;6.60;99.90;;;;;;5096335;28;20199;-86
2022/11/20 11:00:24;;;;;;;0.10;0.10;;;6.60;99.90;;;;;;5099960;28;20289;-86
2022/11/20 11:02:56;;;;;;;0.10;0.10;;;6.70;99.90;;;;;;5102697;28;20284;-86
2022/11/20 11:05:42;;;;;;;0.10;0.10;;;6.80;99.90;;;;;;5101261;28;20263;-86
2022/11/20 11:08:16;;;;;;;0.00;0.00;;;6.80;99.90;;;;;;5081186;28;20234;-86
2022/11/20 11:10:54;;;;;;;0.10;0.10;;;6.80;99.90;;;;;;5109585;28;20194;-85
2022/11/20 11:13:26;;;;;;;0.10;0.10;;;6.90;99.90;;;;;;5100382;28;20211;-85
2022/11/20 11:15:53;;;;;;;0.10;0.10;;;6.90;99.90;;;;;;5100885;28;20555;-86
2022/11/20 11:18:27;;;;;;;0.10;0.10;;;7.00;99.90;;;;;;5087145;28;20203;-85
2022/11/20 11:20:55;;;;;;;0.07;0.07;;;6.90;99.90;;;;;;5093257;28;20259;-85
2022/11/20 11:23:40;;;;;;;0.10;0.10;;;7.10;99.90;;;;;;5093609;28;20213;-86
2022/11/20 11:26:24;;;;;;;0.00;0.00;;;7.30;99.90;;;;;;5085276;28;20245;-86
2022/11/20 11:28:58;;;;;;;0.10;0.10;;;7.40;99.90;;;;;;5095588;28;20557;-86
2022/11/20 11:31:32;;;;;;;0.10;0.10;;;7.70;99.90;;;;;;5106877;28;20201;-86
2022/11/20 11:34:24;;;;;;;0.10;0.10;;;8.00;99.90;;;;;;5088113;28;20258;-86
2022/11/20 11:36:55;;;;;;;0.10;0.10;;;8.10;99.90;;;;;;5091538;28;20249;-86
2022/11/20 11:39:21;;;;;;;0.10;0.10;;;8.00;99.90;;;;;;5099487;28;20214;-86
2022/11/20 11:41:48;;;;;;;0.10;0.10;;;8.00;99.90;;;;;;5099772;28;20284;-86
2022/11/20 11:47:25;;;;;;;0.10;0.10;;;7.80;99.90;;;;;;5087944;28;20185;-85
2022/11/20 11:50:13;;;;;;;0.10;0.10;;;8.00;99.90;;;;;;5095341;28;20216;-86
2022/11/20 11:52:57;;;;;;;0.10;0.10;;;8.10;99.90;;;;;;5089307;28;20216;-86
2022/11/20 11:55:50;;;;;;;0.10;0.10;;;8.20;99.90;;;;;;5086241;28;20557;-85
2022/11/20 11:58:37;;;;;;;0.10;0.10;;;8.40;99.90;;;;;;5104597;28;20556;-85
2022/11/20 12:01:38;;;;;;;0.10;0.10;;;8.80;99.90;;;;;;5085686;28;20685;-86
2022/11/20 12:04:42;;;;;;;0.10;0.10;;;8.80;99.90;;;;;;5097530;28;20192;-85
2022/11/20 12:07:30;;;;;;;0.10;0.10;;;8.60;99.90;;;;;;5090803;28;20670;-86
2022/11/20 12:09:57;;;;;;;0.10;0.10;;;8.40;99.90;;;;;;5091593;28;20201;-86
2022/11/20 12:12:29;;;;;;;0.00;0.00;;;8.30;99.90;;;;;;5091401;28;20270;-86
2022/11/20 12:14:57;;;;;;;0.00;0.00;;;8.00;99.90;;;;;;5090259;28;20179;-86
2022/11/20 12:17:22;;;;;;;0.03;0.03;;;7.90;99.90;;;;;;5106801;28;20185;-84
2022/11/20 12:19:48;;;;;;;0.10;0.10;;;7.90;99.90;;;;;;5100693;28;20346;-85
2022/11/20 12:22:46;;;;;;;0.10;0.10;;;7.80;99.90;;;;;;5105238;28;20207;-86
2022/11/20 12:25:25;;;;;;;0.10;0.10;;;7.70;99.90;;;;;;5105416;28;20209;-86
2022/11/20 12:27:59;;;;;;;0.00;0.00;;;7.70;99.90;;;;;;5096191;28;20530;-86
2022/11/20 12:30:25;;;;;;;0.10;0.10;;;7.70;99.90;;;;;;5090571;28;20199;-86
2022/11/20 12:33:09;;;;;;;0.07;0.07;;;7.60;99.90;;;;;;5105986;28;20181;-85
2022/11/20 12:36:13;;;;;;;0.07;0.07;;;7.60;99.90;;;;;;5103588;28;20191;-86
2022/11/20 12:38:48;;;;;;;0.00;0.00;;;7.70;99.90;;;;;;5089125;28;20240;-85
2022/11/20 12:47:29;;;;;;;0.10;0.10;;;7.80;99.90;;;;;;5098693;28;20181;-86
2022/11/20 12:50:17;;;;;;;0.00;0.00;;;7.80;99.90;;;;;;5099649;28;20195;-86
2022/11/20 12:52:58;;;;;;;0.07;0.07;;;7.70;99.90;;;;;;5093785;28;20237;-86
2022/11/20 12:55:49;;;;;;;0.10;0.10;;;7.80;99.90;;;;;;5082277;28;20247;-86
2022/11/20 12:58:33;;;;;;;0.00;0.00;;;7.80;99.90;;;;;;5103893;28;20213;-86
2022/11/20 13:01:39;;;;;;;0.10;0.10;;;7.50;99.90;;;;;;5092466;28;20228;-86
2022/11/20 13:04:30;;;;;;;0.10;0.10;;;7.60;99.90;;;;;;5105505;28;20223;-86
2022/11/20 13:06:57;;;;;;;0.10;0.10;;;7.40;99.90;;;;;;5064098;28;20185;-85
2022/11/20 13:09:24;;;;;;;0.10;0.10;;;7.20;99.90;;;;;;5103445;28;20196;-86
2022/11/20 13:12:06;;;;;;;0.10;0.10;;;7.20;99.90;;;;;;5099731;28;20187;-86
2022/11/20 13:14:40;;;;;;;0.10;0.10;;;7.50;99.90;;;;;;5095230;28;20191;-86
2022/11/20 13:17:23;;;;;;;0.10;0.10;;;7.70;99.90;;;;;;5089385;28;20680;-86
2022/11/20 13:19:58;;;;;;;0.10;0.10;;;7.80;99.90;;;;;;5094709;28;20204;-86
2022/11/20 13:22:48;;;;;;;0.10;0.10;;;7.90;99.90;;;;;;5091950;28;20197;-86
2022/11/20 13:25:26;;;;;;;0.10;0.10;;;7.80;99.90;;;;;;5098576;28;20176;-86
2022/11/20 13:27:52;;;;;;;0.10;0.10;;;7.70;99.90;;;;;;5101200;28;20173;-86
2022/11/20 13:30:26;;;;;;;0.10;0.10;;;7.70;99.90;;;;;;5108613;28;20731;-86